Time;durP1;ratioP1;P1;durP2;ratioP2;P2;SDS_P1;SDS_P2;PMS_P1;PMS_P2;Temp;Humidity;BMP_temperature;BMP_pressure;BME280_temperature;BME280_humidity;BME280_pressure;Samples;Min_cycle;Max_cycle;Signal;HPM_P1;HPM_P2
2023/04/08 00:01:19;;;;;;;20.58;7.22;;;8.60;91.00;;;;;;6144516;22;87966;-75
2023/04/08 00:03:45;;;;;;;19.77;6.85;;;8.60;90.90;;;;;;6117439;22;89193;-72
2023/04/08 00:06:10;;;;;;;17.30;5.88;;;8.60;91.10;;;;;;6116568;22;92478;-72
2023/04/08 00:08:36;;;;;;;18.63;5.93;;;8.60;91.00;;;;;;6141751;22;88917;-73
2023/04/08 00:11:02;;;;;;;16.60;5.97;;;8.60;91.00;;;;;;6144027;22;87364;-72
2023/04/08 00:13:28;;;;;;;13.90;5.53;;;8.60;90.90;;;;;;6143348;22;87984;-73
2023/04/08 00:15:53;;;;;;;16.02;5.85;;;8.60;91.00;;;;;;6116045;22;91438;-75
2023/04/08 00:18:19;;;;;;;14.93;5.30;;;8.60;90.90;;;;;;6143914;22;87490;-74
2023/04/08 00:20:45;;;;;;;14.77;5.95;;;8.60;90.90;;;;;;6142078;22;87688;-76
2023/04/08 00:23:10;;;;;;;17.70;6.35;;;8.60;91.00;;;;;;6143992;22;86920;-73
2023/04/08 00:25:36;;;;;;;19.58;6.05;;;8.70;91.00;;;;;;6118109;22;91351;-73
2023/04/08 00:28:02;;;;;;;20.95;5.88;;;8.70;91.00;;;;;;6144501;22;88911;-74
2023/04/08 00:30:27;;;;;;;22.60;5.97;;;8.70;90.90;;;;;;6143257;22;88599;-73
2023/04/08 00:32:54;;;;;;;8.90;4.80;;;8.70;91.00;;;;;;6144048;22;87476;-75
2023/04/08 00:35:19;;;;;;;13.38;5.80;;;8.70;90.90;;;;;;6117680;22;91004;-72
2023/04/08 00:37:45;;;;;;;17.08;5.88;;;8.70;90.80;;;;;;6142328;22;87896;-73
2023/04/08 00:40:11;;;;;;;18.48;6.63;;;8.70;91.00;;;;;;6117483;22;87289;-73
2023/04/08 00:42:37;;;;;;;19.13;5.70;;;8.70;91.00;;;;;;6117254;22;90949;-75
2023/04/08 00:45:03;;;;;;;17.00;5.50;;;8.60;90.90;;;;;;6143347;22;88701;-73
2023/04/08 00:47:29;;;;;;;21.40;6.43;;;8.70;91.20;;;;;;6081117;23;92000;-72
2023/04/08 00:49:55;;;;;;;19.08;6.70;;;8.60;91.20;;;;;;6057438;23;87705;-72
2023/04/08 00:52:20;;;;;;;13.50;5.80;;;8.60;91.20;;;;;;6080660;23;87906;-75
2023/04/08 00:54:46;;;;;;;16.77;6.45;;;8.60;91.20;;;;;;6079954;23;88658;-73
2023/04/08 00:57:12;;;;;;;16.40;6.38;;;8.60;91.10;;;;;;6079651;23;89191;-76
2023/04/08 00:59:37;;;;;;;15.23;5.78;;;8.60;91.10;;;;;;6080946;23;87941;-72
2023/04/08 01:02:11;;;;;;;18.13;5.65;;;8.60;91.10;;;;;;6078861;23;87546;-74
2023/04/08 01:04:54;;;;;;;20.75;6.05;;;8.60;91.10;;;;;;6081507;23;88069;-72
2023/04/08 01:07:40;;;;;;;24.95;6.85;;;8.60;91.10;;;;;;6080809;23;87725;-74
2023/04/08 01:10:16;;;;;;;19.05;6.45;;;8.60;91.30;;;;;;6056948;23;87324;-73
2023/04/08 01:12:57;;;;;;;17.98;6.88;;;8.60;91.30;;;;;;6080613;23;86706;-74
2023/04/08 01:15:25;;;;;;;14.45;5.82;;;8.60;91.30;;;;;;6055470;23;91187;-73
2023/04/08 01:17:55;;;;;;;21.48;6.95;;;8.60;91.30;;;;;;6068437;22;91058;-74
2023/04/08 01:20:23;;;;;;;21.60;6.30;;;8.60;91.40;;;;;;6142787;22;89281;-71
2023/04/08 01:23:03;;;;;;;22.75;6.55;;;8.60;91.30;;;;;;6118003;22;90079;-72
2023/04/08 01:25:35;;;;;;;15.90;7.05;;;8.60;91.40;;;;;;6117550;22;95394;-75
2023/04/08 01:28:08;;;;;;;23.23;6.53;;;8.60;91.50;;;;;;6117300;22;91005;-74
2023/04/08 01:30:36;;;;;;;20.63;7.20;;;8.60;91.40;;;;;;6143421;22;87616;-73
2023/04/08 01:33:03;;;;;;;20.67;6.97;;;8.60;91.50;;;;;;6117075;22;89832;-77
2023/04/08 01:35:30;;;;;;;20.83;7.50;;;8.60;91.60;;;;;;6143088;22;88156;-73
2023/04/08 01:37:57;;;;;;;18.10;6.30;;;8.60;91.60;;;;;;6117942;22;91137;-72
2023/04/08 01:40:22;;;;;;;29.83;6.82;;;8.60;91.60;;;;;;6144108;22;87335;-72
2023/04/08 01:42:50;;;;;;;16.40;7.53;;;8.60;91.90;;;;;;6143959;22;87874;-72
2023/04/08 01:45:17;;;;;;;17.65;6.88;;;8.60;91.90;;;;;;6142656;22;92201;-72
2023/04/08 01:47:46;;;;;;;19.58;6.93;;;8.60;91.90;;;;;;6116589;22;91030;-75
2023/04/08 01:50:13;;;;;;;26.77;7.55;;;8.60;91.70;;;;;;6116693;22;87417;-72
2023/04/08 01:52:40;;;;;;;24.90;7.53;;;8.50;92.20;;;;;;6117671;22;90496;-73
2023/04/08 01:55:06;;;;;;;22.63;7.28;;;8.50;91.90;;;;;;6143401;22;88025;-74
2023/04/08 01:57:35;;;;;;;20.10;7.30;;;8.50;91.90;;;;;;6143831;22;88525;-72
2023/04/08 02:00:05;;;;;;;19.92;7.13;;;8.60;92.00;;;;;;6117318;22;88306;-77
2023/04/08 02:02:32;;;;;;;26.50;7.78;;;8.50;91.90;;;;;;6143471;22;87061;-77
2023/04/08 02:04:58;;;;;;;28.75;8.80;;;8.50;91.90;;;;;;6117787;22;89588;-75
2023/04/08 02:07:24;;;;;;;17.75;7.05;;;8.50;92.00;;;;;;6117280;22;91326;-74
2023/04/08 02:09:50;;;;;;;20.50;6.93;;;8.50;92.10;;;;;;6142646;22;88512;-75
2023/04/08 02:12:16;;;;;;;25.10;7.70;;;8.50;91.90;;;;;;6143317;22;87556;-73
2023/04/08 02:14:42;;;;;;;25.13;7.63;;;8.50;91.90;;;;;;6143020;22;88654;-72
2023/04/08 02:17:12;;;;;;;13.57;6.90;;;8.50;92.10;;;;;;6143316;22;87886;-72
2023/04/08 02:19:47;;;;;;;16.58;6.95;;;8.50;91.90;;;;;;6110879;23;87783;-75
2023/04/08 02:22:42;;;;;;;22.88;7.55;;;8.50;91.90;;;;;;6085370;23;90208;-72
2023/04/08 02:25:13;;;;;;;29.27;6.95;;;8.50;92.00;;;;;;6022068;23;87719;-72
2023/04/08 02:27:42;;;;;;;19.98;7.63;;;8.50;92.00;;;;;;5998675;23;91251;-77
2023/04/08 02:30:10;;;;;;;25.95;7.78;;;8.50;92.10;;;;;;6022473;23;87591;-73
2023/04/08 02:32:37;;;;;;;23.10;7.47;;;8.40;92.20;;;;;;6021432;23;87704;-72
2023/04/08 02:35:04;;;;;;;22.15;7.00;;;8.40;92.20;;;;;;5997414;23;92207;-72
2023/04/08 02:37:31;;;;;;;20.88;7.57;;;8.40;92.30;;;;;;6021344;23;88361;-74
2023/04/08 02:39:57;;;;;;;25.77;7.70;;;8.40;92.30;;;;;;6022073;23;87592;-72
2023/04/08 02:42:23;;;;;;;22.70;8.48;;;8.40;92.40;;;;;;6022476;23;88159;-71
2023/04/08 02:44:49;;;;;;;25.20;7.90;;;8.40;92.50;;;;;;5998186;23;91374;-74
2023/04/08 02:47:15;;;;;;;18.52;6.97;;;8.40;92.30;;;;;;5997163;23;90080;-73
2023/04/08 02:49:41;;;;;;;19.95;6.95;;;8.40;92.30;;;;;;5998222;23;87330;-72
2023/04/08 02:52:06;;;;;;;29.67;7.93;;;8.50;92.30;;;;;;6022035;23;87431;-73
2023/04/08 02:54:32;;;;;;;24.67;8.25;;;8.40;92.40;;;;;;6022157;23;88981;-72
2023/04/08 02:56:57;;;;;;;23.10;7.93;;;8.40;92.40;;;;;;6034454;23;87934;-72
2023/04/08 02:59:23;;;;;;;17.42;8.38;;;8.40;92.40;;;;;;6026407;23;88432;-72
2023/04/08 03:01:49;;;;;;;24.88;8.07;;;8.40;92.40;;;;;;6084538;22;88798;-72
2023/04/08 03:04:14;;;;;;;22.27;8.60;;;8.40;92.50;;;;;;6116815;22;90595;-72
2023/04/08 03:06:40;;;;;;;26.27;8.65;;;8.40;92.90;;;;;;6143772;22;88015;-72
2023/04/08 03:09:06;;;;;;;28.52;9.63;;;8.40;92.90;;;;;;6143306;22;87491;-72
2023/04/08 03:11:31;;;;;;;23.38;8.60;;;8.40;92.90;;;;;;6116610;22;90858;-74
2023/04/08 03:13:57;;;;;;;22.52;8.75;;;8.40;92.80;;;;;;6143755;22;87998;-73
2023/04/08 03:16:23;;;;;;;19.63;8.75;;;8.30;92.90;;;;;;6117277;22;93004;-74
2023/04/08 03:18:50;;;;;;;19.80;8.65;;;8.30;92.80;;;;;;6117504;22;87916;-72
2023/04/08 03:21:16;;;;;;;21.92;8.85;;;8.30;92.90;;;;;;6116162;22;90334;-73
2023/04/08 03:23:42;;;;;;;22.38;8.93;;;8.40;93.20;;;;;;6142720;22;88567;-72
2023/04/08 03:26:07;;;;;;;21.95;8.85;;;8.30;93.00;;;;;;6142834;22;88840;-72
2023/04/08 03:28:33;;;;;;;27.02;9.48;;;8.30;92.90;;;;;;6118066;22;87500;-73
2023/04/08 03:31:02;;;;;;;21.73;8.65;;;8.40;92.80;;;;;;6143872;22;88228;-73
2023/04/08 03:33:27;;;;;;;21.70;9.68;;;8.40;92.80;;;;;;6116471;22;91347;-71
2023/04/08 03:35:53;;;;;;;23.85;9.02;;;8.40;92.80;;;;;;6116648;22;91201;-74
2023/04/08 03:38:19;;;;;;;27.00;9.95;;;8.30;92.80;;;;;;6142764;22;87498;-74
2023/04/08 03:40:45;;;;;;;22.30;8.70;;;8.40;92.90;;;;;;6117843;22;90656;-73
2023/04/08 03:43:11;;;;;;;31.83;9.30;;;8.40;92.90;;;;;;6143319;22;88711;-73
2023/04/08 03:45:37;;;;;;;23.13;9.80;;;8.40;92.70;;;;;;6116587;22;91308;-72
2023/04/08 03:48:03;;;;;;;23.92;9.93;;;8.40;92.90;;;;;;6142573;22;88723;-76
2023/04/08 03:50:29;;;;;;;25.10;9.52;;;8.40;92.90;;;;;;6143433;22;87797;-71
2023/04/08 03:52:54;;;;;;;28.23;10.07;;;8.40;93.00;;;;;;6144162;22;88611;-73
2023/04/08 03:55:20;;;;;;;27.33;10.60;;;8.30;92.90;;;;;;6116450;22;90863;-73
2023/04/08 03:57:46;;;;;;;29.17;10.70;;;8.40;93.00;;;;;;6141595;22;87632;-72
2023/04/08 04:00:12;;;;;;;25.95;10.32;;;8.30;93.10;;;;;;6140270;22;89454;-72
2023/04/08 04:02:37;;;;;;;25.67;10.70;;;8.30;93.00;;;;;;6114264;22;91927;-74
2023/04/08 04:05:03;;;;;;;27.27;10.45;;;8.30;93.10;;;;;;6115740;22;89877;-73
2023/04/08 04:07:29;;;;;;;27.17;10.32;;;8.30;93.20;;;;;;6116762;22;87582;-73
2023/04/08 04:09:55;;;;;;;26.40;11.60;;;8.30;93.30;;;;;;6142492;22;87767;-72
2023/04/08 04:12:22;;;;;;;29.13;11.52;;;8.30;93.20;;;;;;6140928;22;89062;-72
2023/04/08 04:14:47;;;;;;;30.58;11.98;;;8.30;93.30;;;;;;6141678;22;88400;-73
2023/04/08 04:17:13;;;;;;;29.75;12.05;;;8.30;93.40;;;;;;6142616;22;87534;-73
2023/04/08 04:19:39;;;;;;;41.53;13.18;;;8.20;93.40;;;;;;6143539;22;87541;-72
2023/04/08 04:22:05;;;;;;;30.98;12.45;;;8.30;93.30;;;;;;6142242;22;87764;-72
2023/04/08 04:24:30;;;;;;;35.95;13.05;;;8.30;93.40;;;;;;6141938;22;88273;-73
2023/04/08 04:26:56;;;;;;;27.05;14.00;;;8.30;93.40;;;;;;6116124;22;87703;-73
2023/04/08 04:29:21;;;;;;;28.42;11.30;;;8.30;93.30;;;;;;6115971;22;90319;-73
2023/04/08 04:31:47;;;;;;;25.25;10.77;;;8.30;93.30;;;;;;6141325;22;91267;-77
2023/04/08 04:34:13;;;;;;;30.63;12.13;;;8.30;93.30;;;;;;6142822;22;87730;-72
2023/04/08 04:36:38;;;;;;;25.48;11.50;;;8.30;93.20;;;;;;6139708;22;88296;-72
2023/04/08 04:39:04;;;;;;;27.10;12.57;;;8.30;92.80;;;;;;6141311;22;88909;-71
2023/04/08 04:41:30;;;;;;;37.13;14.25;;;8.30;92.80;;;;;;6142062;22;88180;-72
2023/04/08 04:43:55;;;;;;;28.23;12.43;;;8.30;92.90;;;;;;6141412;22;87835;-77
2023/04/08 04:46:21;;;;;;;36.88;14.13;;;8.30;93.00;;;;;;6142016;22;87482;-76
2023/04/08 04:48:47;;;;;;;35.88;14.57;;;8.30;93.20;;;;;;6141870;22;87697;-74
2023/04/08 04:51:12;;;;;;;33.28;13.10;;;8.30;93.20;;;;;;6140898;22;88684;-72
2023/04/08 04:53:38;;;;;;;24.40;13.40;;;8.30;93.20;;;;;;6142271;22;87172;-76
2023/04/08 04:56:04;;;;;;;28.58;11.98;;;8.30;93.20;;;;;;6142172;22;87594;-72
2023/04/08 04:58:30;;;;;;;31.63;12.68;;;8.30;92.90;;;;;;6141559;22;89164;-74
2023/04/08 05:00:56;;;;;;;33.47;13.65;;;8.30;92.80;;;;;;6141564;22;88549;-77
2023/04/08 05:03:22;;;;;;;30.63;12.38;;;8.30;93.10;;;;;;6141301;22;88723;-72
2023/04/08 05:05:54;;;;;;;46.47;14.93;;;8.30;92.80;;;;;;6141500;22;87747;-74
2023/04/08 05:08:20;;;;;;;35.45;14.77;;;8.30;93.00;;;;;;6115243;22;90158;-72
2023/04/08 05:10:48;;;;;;;29.52;14.57;;;8.30;93.20;;;;;;6116520;22;91348;-72
2023/04/08 05:13:14;;;;;;;36.42;15.52;;;8.30;93.20;;;;;;6143950;22;88364;-74
2023/04/08 05:15:40;;;;;;;31.45;14.63;;;8.30;93.40;;;;;;6116511;22;87668;-72
2023/04/08 05:18:05;;;;;;;36.17;14.63;;;8.30;93.40;;;;;;6116699;22;90509;-72
2023/04/08 05:20:31;;;;;;;27.08;14.70;;;8.30;93.40;;;;;;6143307;22;87686;-72
2023/04/08 05:22:57;;;;;;;42.55;16.02;;;8.30;93.50;;;;;;6143205;22;88443;-75
2023/04/08 05:25:22;;;;;;;36.72;16.33;;;8.30;93.60;;;;;;6141704;22;88963;-73
2023/04/08 05:27:48;;;;;;;32.17;16.33;;;8.30;93.60;;;;;;6143224;22;87720;-72
2023/04/08 05:30:15;;;;;;;41.65;15.88;;;8.30;93.60;;;;;;6141797;22;91439;-78
2023/04/08 05:32:40;;;;;;;39.55;15.85;;;8.30;93.60;;;;;;6144264;22;88373;-72
2023/04/08 05:35:08;;;;;;;40.60;16.70;;;8.30;93.70;;;;;;6143613;22;87530;-72
2023/04/08 05:37:33;;;;;;;41.22;16.42;;;8.30;93.70;;;;;;6143902;22;87448;-75
2023/04/08 05:39:59;;;;;;;38.85;15.75;;;8.30;93.70;;;;;;6143767;22;87838;-73
2023/04/08 05:42:25;;;;;;;37.28;16.05;;;8.40;93.70;;;;;;6118155;22;91195;-74
2023/04/08 05:44:51;;;;;;;39.45;14.73;;;8.40;93.70;;;;;;6142698;22;87577;-72
2023/04/08 05:47:17;;;;;;;43.42;16.73;;;8.40;93.70;;;;;;6116983;22;90329;-73
2023/04/08 05:49:42;;;;;;;36.42;15.65;;;8.40;93.60;;;;;;6143674;22;89855;-73
2023/04/08 05:52:08;;;;;;;43.15;15.90;;;8.40;93.60;;;;;;6143302;22;88225;-72
2023/04/08 05:54:34;;;;;;;37.67;15.70;;;8.40;93.60;;;;;;6142106;22;87518;-73
2023/04/08 05:56:59;;;;;;;35.95;15.65;;;8.50;94.00;;;;;;6142494;22;90189;-73
2023/04/08 05:59:25;;;;;;;34.88;15.25;;;8.50;93.50;;;;;;6142559;22;87837;-72
2023/04/08 06:01:51;;;;;;;33.83;16.20;;;8.60;93.30;;;;;;6143657;22;89804;-75
2023/04/08 06:04:16;;;;;;;30.88;16.17;;;8.60;93.30;;;;;;6117338;22;87734;-74
2023/04/08 06:06:42;;;;;;;40.13;16.13;;;8.70;93.30;;;;;;6117696;22;90042;-76
2023/04/08 06:09:11;;;;;;;38.88;16.23;;;8.70;93.20;;;;;;6143097;22;88913;-72
2023/04/08 06:11:36;;;;;;;35.58;16.45;;;8.70;93.20;;;;;;6116823;22;91864;-73
2023/04/08 06:14:02;;;;;;;34.88;15.88;;;8.60;93.20;;;;;;6115530;22;88714;-73
2023/04/08 06:16:27;;;;;;;45.00;19.50;;;8.60;93.30;;;;;;6143039;22;90704;-72
2023/04/08 06:18:54;;;;;;;57.72;20.52;;;8.70;93.30;;;;;;6141273;22;91361;-74
2023/04/08 06:21:20;;;;;;;62.28;22.95;;;8.70;93.00;;;;;;6141774;22;91843;-71
2023/04/08 06:23:46;;;;;;;49.90;21.75;;;8.60;92.90;;;;;;6144518;22;87294;-73
2023/04/08 06:26:12;;;;;;;46.70;19.88;;;8.60;93.00;;;;;;6143250;22;87382;-74
2023/04/08 06:28:37;;;;;;;51.25;21.85;;;8.70;92.90;;;;;;6144566;22;88279;-74
2023/04/08 06:31:03;;;;;;;52.08;21.30;;;8.80;92.80;;;;;;6116621;22;89787;-73
2023/04/08 06:33:29;;;;;;;49.40;19.63;;;8.80;92.70;;;;;;6117234;22;87646;-73
2023/04/08 06:36:02;;;;;;;45.88;20.55;;;8.90;92.40;;;;;;6115746;22;90284;-72
2023/04/08 06:38:28;;;;;;;45.95;19.95;;;9.00;92.40;;;;;;6113560;22;92451;-72
2023/04/08 06:40:55;;;;;;;51.92;21.00;;;9.00;92.30;;;;;;6141066;22;89013;-73
2023/04/08 06:43:21;;;;;;;44.72;21.23;;;9.00;92.40;;;;;;6141200;22;87692;-75
2023/04/08 06:45:46;;;;;;;56.58;22.27;;;9.10;92.10;;;;;;6141091;22;87656;-72
2023/04/08 06:48:12;;;;;;;46.00;21.02;;;9.10;92.10;;;;;;6140998;22;87797;-72
2023/04/08 06:50:37;;;;;;;50.90;20.75;;;9.10;92.20;;;;;;6141273;22;87801;-73
2023/04/08 06:53:03;;;;;;;59.88;24.38;;;9.20;92.20;;;;;;6140351;22;87897;-74
2023/04/08 06:55:28;;;;;;;48.13;23.13;;;9.30;91.90;;;;;;6115539;22;88308;-72
2023/04/08 06:57:54;;;;;;;53.13;22.05;;;9.40;91.90;;;;;;6113726;22;91436;-72
2023/04/08 07:00:20;;;;;;;57.78;24.80;;;9.40;92.00;;;;;;6141871;22;87665;-72
2023/04/08 07:02:45;;;;;;;58.22;24.48;;;9.50;91.40;;;;;;6138417;22;88551;-72
2023/04/08 07:05:11;;;;;;;51.60;22.38;;;9.50;91.30;;;;;;6140944;22;87709;-72
2023/04/08 07:07:37;;;;;;;48.25;21.50;;;9.60;91.00;;;;;;6140353;22;91532;-72
2023/04/08 07:10:03;;;;;;;43.08;23.25;;;9.60;91.60;;;;;;6139045;22;90693;-74
2023/04/08 07:12:28;;;;;;;52.67;22.80;;;9.70;91.70;;;;;;6114515;22;87467;-72
2023/04/08 07:14:54;;;;;;;45.58;21.27;;;9.80;91.00;;;;;;6105578;22;89229;-72
2023/04/08 07:17:19;;;;;;;50.75;21.30;;;9.80;90.80;;;;;;6106710;22;87576;-72
2023/04/08 07:19:46;;;;;;;54.20;22.27;;;9.90;91.00;;;;;;6084276;23;91229;-72
2023/04/08 07:22:11;;;;;;;51.40;21.77;;;9.80;90.70;;;;;;6108086;22;87611;-74
2023/04/08 07:24:37;;;;;;;49.58;22.98;;;9.90;90.80;;;;;;6106993;23;87685;-74
2023/04/08 07:27:02;;;;;;;49.50;22.58;;;10.00;91.30;;;;;;6105852;23;88817;-77
2023/04/08 07:29:28;;;;;;;53.72;23.73;;;10.10;90.40;;;;;;6082251;23;91111;-72
2023/04/08 07:31:54;;;;;;;46.05;24.17;;;10.10;90.30;;;;;;6077758;23;87857;-75
2023/04/08 07:34:20;;;;;;;45.85;22.50;;;10.10;90.30;;;;;;6077641;23;89962;-72
2023/04/08 07:36:46;;;;;;;47.42;23.25;;;10.20;90.20;;;;;;6077384;23;88820;-72
2023/04/08 07:39:12;;;;;;;45.70;22.03;;;10.30;90.10;;;;;;6029325;23;1152434;-75
2023/04/08 07:41:38;;;;;;;41.78;22.10;;;10.30;89.20;;;;;;6079165;23;87650;-73
2023/04/08 07:44:03;;;;;;;45.10;21.50;;;10.40;88.80;;;;;;6079073;23;88297;-73
2023/04/08 07:46:30;;;;;;;39.78;22.13;;;10.40;88.00;;;;;;6100760;23;88677;-73
2023/04/08 07:48:56;;;;;;;43.33;22.77;;;10.50;89.10;;;;;;6109529;23;87380;-73
2023/04/08 07:51:22;;;;;;;45.20;21.42;;;10.70;90.00;;;;;;6108489;23;89014;-73
2023/04/08 07:53:47;;;;;;;36.67;21.60;;;10.90;86.60;;;;;;6083756;23;90479;-73
2023/04/08 07:56:17;;;;;;;52.08;22.92;;;11.00;86.40;;;;;;6084623;23;90909;-72
2023/04/08 07:58:43;;;;;;;41.22;21.98;;;11.20;87.30;;;;;;6109895;23;87920;-75
2023/04/08 08:01:34;;;;;;;37.95;21.35;;;11.40;86.80;;;;;;6109347;23;87788;-75
2023/04/08 08:04:00;;;;;;;43.45;20.63;;;11.50;84.50;;;;;;5990851;23;89321;-77
2023/04/08 08:06:26;;;;;;;36.05;20.60;;;11.50;83.20;;;;;;6019401;23;88347;-75
2023/04/08 08:08:52;;;;;;;43.33;21.42;;;11.50;83.40;;;;;;6017649;23;91405;-75
2023/04/08 08:11:18;;;;;;;38.03;21.27;;;11.50;82.80;;;;;;6019965;23;87232;-74
2023/04/08 08:13:44;;;;;;;35.75;19.48;;;11.70;84.60;;;;;;6019517;23;87584;-72
2023/04/08 08:16:10;;;;;;;37.70;19.92;;;11.70;82.10;;;;;;6017792;23;92263;-74
2023/04/08 08:18:36;;;;;;;35.13;19.05;;;11.90;83.60;;;;;;5996026;23;90434;-73
2023/04/08 08:21:03;;;;;;;35.53;20.00;;;12.00;81.20;;;;;;6019115;23;87686;-75
2023/04/08 08:23:28;;;;;;;35.00;19.00;;;12.00;80.10;;;;;;6019307;23;87764;-72
2023/04/08 08:26:06;;;;;;;35.45;17.20;;;12.10;81.00;;;;;;6018531;23;88411;-74
2023/04/08 08:28:32;;;;;;;30.85;15.55;;;12.30;81.50;;;;;;6019980;23;92901;-75
2023/04/08 08:30:58;;;;;;;32.17;19.05;;;12.30;79.00;;;;;;6020016;23;87692;-73
2023/04/08 08:33:27;;;;;;;33.08;19.08;;;12.40;81.40;;;;;;5995582;23;89010;-73
2023/04/08 08:35:52;;;;;;;35.00;19.25;;;12.30;79.00;;;;;;5982560;23;90955;-77
2023/04/08 08:38:18;;;;;;;31.13;17.98;;;12.40;81.50;;;;;;6018908;23;89018;-73
2023/04/08 08:40:44;;;;;;;38.35;19.02;;;12.60;80.90;;;;;;6066196;22;88839;-73
2023/04/08 08:43:11;;;;;;;33.92;18.30;;;13.00;79.20;;;;;;6140509;22;89124;-77
2023/04/08 08:45:41;;;;;;;36.15;18.95;;;13.10;79.40;;;;;;6116157;22;91454;-73
2023/04/08 08:48:07;;;;;;;34.63;19.60;;;13.30;77.20;;;;;;6118559;22;91008;-73
2023/04/08 08:50:34;;;;;;;31.10;18.30;;;13.50;77.20;;;;;;6117980;22;87600;-74
2023/04/08 08:53:00;;;;;;;35.72;19.00;;;13.50;76.40;;;;;;6119242;22;90644;-74
2023/04/08 08:55:29;;;;;;;35.80;20.48;;;13.50;76.90;;;;;;6115432;22;91210;-74
2023/04/08 08:57:54;;;;;;;30.50;18.13;;;13.50;77.20;;;;;;6144214;22;87531;-74
2023/04/08 09:00:30;;;;;;;28.90;16.45;;;13.50;76.50;;;;;;6145308;22;87839;-73
2023/04/08 09:03:12;;;;;;;30.42;17.83;;;13.60;75.70;;;;;;6117576;22;90809;-73
2023/04/08 09:05:57;;;;;;;20.77;12.55;;;13.80;74.90;;;;;;6143413;22;88886;-75
2023/04/08 09:08:25;;;;;;;23.42;13.82;;;13.70;74.50;;;;;;6143252;22;89004;-73
2023/04/08 09:10:51;;;;;;;24.90;14.25;;;13.70;74.30;;;;;;6117722;22;87467;-74
2023/04/08 09:13:17;;;;;;;22.50;14.45;;;13.60;74.20;;;;;;6115934;22;89662;-75
2023/04/08 09:16:22;;;;;;;20.30;14.15;;;13.60;75.00;;;;;;6142426;22;88205;-76
2023/04/08 09:18:48;;;;;;;23.13;12.73;;;13.80;74.40;;;;;;6119119;22;91405;-74
2023/04/08 09:21:21;;;;;;;20.27;13.07;;;14.10;73.40;;;;;;6143672;22;87422;-75
2023/04/08 09:23:49;;;;;;;22.80;13.10;;;14.20;71.50;;;;;;6143067;22;86973;-75
2023/04/08 09:26:18;;;;;;;20.85;11.95;;;14.20;71.30;;;;;;6142351;22;88170;-75
2023/04/08 09:29:03;;;;;;;19.05;12.63;;;14.40;72.10;;;;;;6143868;22;88068;-75
2023/04/08 09:31:40;;;;;;;22.58;13.75;;;14.80;69.20;;;;;;6049682;23;90147;-74
2023/04/08 09:34:18;;;;;;;17.92;10.98;;;15.10;69.40;;;;;;6050073;23;87579;-74
2023/04/08 09:36:44;;;;;;;18.65;11.20;;;15.30;69.70;;;;;;6050133;23;88060;-75
2023/04/08 09:39:10;;;;;;;18.52;12.23;;;15.60;67.80;;;;;;6048931;23;87949;-74
2023/04/08 09:41:37;;;;;;;19.48;11.85;;;15.80;66.90;;;;;;6026675;23;88004;-74
2023/04/08 09:44:08;;;;;;;15.48;11.02;;;16.00;65.90;;;;;;6025714;23;90258;-78
2023/04/08 09:46:48;;;;;;;15.50;10.65;;;16.30;66.30;;;;;;6050951;23;87738;-74
2023/04/08 09:49:28;;;;;;;18.25;10.77;;;16.20;62.50;;;;;;6051175;23;88066;-75
2023/04/08 09:52:06;;;;;;;18.33;11.38;;;16.00;61.40;;;;;;6053793;23;87410;-76
2023/04/08 09:54:58;;;;;;;13.98;9.73;;;16.10;68.50;;;;;;6026116;23;90723;-76
2023/04/08 09:57:40;;;;;;;13.52;9.60;;;16.50;67.10;;;;;;6026199;23;92227;-75
2023/04/08 10:00:12;;;;;;;15.13;9.45;;;16.80;61.90;;;;;;6020641;23;91920;-75
2023/04/08 10:02:56;;;;;;;13.25;8.93;;;16.70;61.50;;;;;;6021504;23;87723;-76
2023/04/08 10:05:23;;;;;;;12.00;8.75;;;16.70;60.80;;;;;;6022477;23;90486;-76
2023/04/08 10:07:50;;;;;;;12.25;7.72;;;16.70;63.10;;;;;;6023210;23;89143;-75
2023/04/08 10:10:16;;;;;;;8.82;7.25;;;17.00;61.80;;;;;;6081190;23;88598;-76
2023/04/08 10:12:42;;;;;;;13.10;8.65;;;17.10;62.90;;;;;;6056222;23;87983;-75
2023/04/08 10:15:24;;;;;;;13.27;8.88;;;17.00;62.60;;;;;;6054895;23;90324;-75
2023/04/08 10:18:12;;;;;;;15.50;9.10;;;17.00;59.10;;;;;;6055598;23;89760;-76
2023/04/08 10:20:38;;;;;;;11.57;7.85;;;17.10;58.70;;;;;;6050030;23;88338;-76
2023/04/08 10:23:05;;;;;;;11.90;8.75;;;17.10;61.90;;;;;;6026355;23;88788;-76
2023/04/08 10:25:34;;;;;;;12.57;8.52;;;17.30;61.90;;;;;;6051220;23;87899;-76
2023/04/08 10:28:18;;;;;;;14.95;9.90;;;17.40;63.00;;;;;;6027197;23;91196;-75
2023/04/08 10:30:45;;;;;;;14.85;10.18;;;17.70;59.90;;;;;;6035761;23;91617;-75
2023/04/08 10:33:14;;;;;;;15.50;10.45;;;17.90;58.50;;;;;;6079898;23;87541;-75
2023/04/08 10:35:45;;;;;;;19.95;11.80;;;18.00;57.50;;;;;;6055693;23;89253;-76
2023/04/08 10:38:12;;;;;;;19.45;11.57;;;18.00;58.00;;;;;;6077741;23;87500;-75
2023/04/08 10:40:40;;;;;;;21.70;12.68;;;17.90;62.70;;;;;;6081360;23;87963;-74
2023/04/08 10:43:06;;;;;;;22.48;12.93;;;17.70;59.10;;;;;;6053667;23;87148;-76
2023/04/08 10:45:33;;;;;;;20.73;14.30;;;17.70;59.50;;;;;;6055798;23;89646;-76
2023/04/08 10:48:23;;;;;;;21.83;14.13;;;17.50;60.20;;;;;;6053749;23;92812;-75
2023/04/08 10:51:05;;;;;;;22.17;14.18;;;17.30;60.90;;;;;;6079395;23;89680;-76
2023/04/08 10:53:35;;;;;;;22.00;14.43;;;17.60;60.90;;;;;;6079346;23;87443;-76
2023/04/08 10:56:12;;;;;;;21.13;13.43;;;17.20;55.80;;;;;;6056224;23;90070;-76
2023/04/08 10:58:47;;;;;;;21.05;14.40;;;17.00;59.30;;;;;;6106689;22;95771;-76
2023/04/08 11:01:13;;;;;;;20.48;13.43;;;17.20;61.40;;;;;;6115342;22;90911;-76
2023/04/08 11:03:40;;;;;;;23.33;14.75;;;17.40;61.70;;;;;;6135321;22;87855;-76
2023/04/08 11:06:06;;;;;;;24.98;15.38;;;17.50;58.30;;;;;;6144487;22;86849;-76
2023/04/08 11:08:32;;;;;;;22.40;15.85;;;17.70;59.50;;;;;;6115494;22;92153;-76
2023/04/08 11:11:03;;;;;;;22.52;15.23;;;17.90;60.40;;;;;;6116907;22;92329;-76
2023/04/08 11:13:29;;;;;;;23.23;15.73;;;18.40;61.00;;;;;;6115387;22;88626;-75
2023/04/08 11:15:59;;;;;;;26.92;16.60;;;18.40;58.40;;;;;;6117087;22;90291;-76
2023/04/08 11:18:26;;;;;;;27.20;17.08;;;18.50;57.60;;;;;;6116960;22;91056;-73
2023/04/08 11:20:52;;;;;;;26.42;16.55;;;18.50;57.20;;;;;;6142758;22;90795;-73
2023/04/08 11:23:18;;;;;;;24.27;15.20;;;18.40;56.90;;;;;;6116215;22;87845;-73
2023/04/08 11:25:45;;;;;;;28.92;16.08;;;18.40;57.00;;;;;;6115662;22;90785;-74
2023/04/08 11:28:12;;;;;;;28.27;16.80;;;18.40;55.20;;;;;;6116984;22;91276;-75
2023/04/08 11:30:39;;;;;;;22.60;15.45;;;18.30;56.20;;;;;;6137343;22;87438;-74
2023/04/08 11:33:06;;;;;;;26.65;16.20;;;18.20;57.00;;;;;;6116447;22;88303;-75
2023/04/08 11:35:32;;;;;;;23.20;15.85;;;18.10;57.20;;;;;;6142102;22;87806;-74
2023/04/08 11:37:58;;;;;;;23.95;14.95;;;18.00;56.30;;;;;;6140734;22;89654;-73
2023/04/08 11:40:25;;;;;;;23.35;15.80;;;18.00;59.00;;;;;;6115578;22;92028;-75
2023/04/08 11:42:51;;;;;;;16.75;10.40;;;18.00;56.80;;;;;;6114139;22;89671;-75
2023/04/08 11:45:20;;;;;;;17.50;12.32;;;18.00;63.70;;;;;;6114494;22;90311;-75
2023/04/08 11:47:47;;;;;;;21.45;13.65;;;18.00;60.00;;;;;;6141615;22;91555;-74
2023/04/08 11:50:22;;;;;;;23.30;14.30;;;18.00;58.70;;;;;;6114356;22;91815;-75
2023/04/08 11:52:49;;;;;;;22.20;14.10;;;18.30;58.10;;;;;;6141539;22;87897;-75
2023/04/08 11:55:30;;;;;;;22.23;14.15;;;18.90;54.40;;;;;;6116589;22;90952;-74
2023/04/08 11:58:00;;;;;;;21.65;13.65;;;19.40;53.90;;;;;;6141813;22;94070;-76
2023/04/08 12:00:27;;;;;;;22.98;14.35;;;20.00;54.20;;;;;;6175158;22;88355;-80
2023/04/08 12:02:53;;;;;;;22.30;13.85;;;20.50;52.30;;;;;;6221753;22;88292;-80
2023/04/08 12:05:18;;;;;;;19.70;13.93;;;20.80;50.20;;;;;;6216930;22;87386;-80
2023/04/08 12:07:44;;;;;;;17.65;12.35;;;21.00;50.80;;;;;;6218224;22;88197;-80
2023/04/08 12:10:14;;;;;;;18.92;13.77;;;21.10;50.60;;;;;;6218893;22;87700;-80
2023/04/08 12:12:40;;;;;;;19.23;13.05;;;21.30;49.50;;;;;;6215959;22;87617;-79
2023/04/08 12:15:07;;;;;;;18.63;12.70;;;21.10;48.60;;;;;;6211556;22;87448;-80
2023/04/08 12:17:33;;;;;;;17.73;12.85;;;21.50;49.70;;;;;;6141602;22;91144;-81
2023/04/08 12:19:59;;;;;;;16.65;11.60;;;22.00;48.00;;;;;;6169589;22;100733;-78
2023/04/08 12:22:25;;;;;;;17.85;11.85;;;22.20;47.30;;;;;;5963242;22;87943;-79
2023/04/08 12:24:50;;;;;;;15.52;12.40;;;22.50;46.50;;;;;;6204033;22;87525;-80
2023/04/08 12:27:16;;;;;;;15.57;10.65;;;22.80;45.80;;;;;;6218924;22;89436;-80
2023/04/08 12:29:42;;;;;;;13.85;10.10;;;23.20;47.60;;;;;;6192536;22;89700;-81
2023/04/08 12:32:08;;;;;;;19.42;13.30;;;23.30;46.70;;;;;;6219458;22;87713;-80
2023/04/08 12:34:34;;;;;;;17.48;12.77;;;23.30;46.30;;;;;;6219021;22;87507;-83
2023/04/08 12:36:59;;;;;;;14.82;11.63;;;23.30;44.40;;;;;;6218161;22;88454;-80
2023/04/08 12:39:25;;;;;;;15.02;10.93;;;23.00;46.30;;;;;;6219046;22;87894;-80